sensor_id;sensor_type;location;lat;lon;timestamp;pressure;altitude;pressure_sealevel;temperature;humidity
81961;BME280;71462;50.650;6.888;2024-01-30T00:01:07;100918.72;;;8.42;56.10
81961;BME280;71462;50.650;6.888;2024-01-30T00:03:34;100922.38;;;8.36;57.07
81961;BME280;71462;50.650;6.888;2024-01-30T00:06:04;100915.34;;;8.47;55.85
81961;BME280;71462;50.650;6.888;2024-01-30T00:08:32;100912.53;;;8.54;56.83
81961;BME280;71462;50.650;6.888;2024-01-30T00:10:59;100921.09;;;8.56;57.34
81961;BME280;71462;50.650;6.888;2024-01-30T00:13:27;100915.78;;;8.72;56.64
81961;BME280;71462;50.650;6.888;2024-01-30T00:15:55;100920.53;;;8.70;57.03
81961;BME280;71462;50.650;6.888;2024-01-30T00:18:22;100913.66;;;8.58;57.44
81961;BME280;71462;50.650;6.888;2024-01-30T00:20:50;100909.78;;;8.49;57.77
81961;BME280;71462;50.650;6.888;2024-01-30T00:23:19;100909.59;;;8.38;58.23
81961;BME280;71462;50.650;6.888;2024-01-30T00:25:46;100916.91;;;8.31;58.46
81961;BME280;71462;50.650;6.888;2024-01-30T00:28:14;100915.44;;;8.24;59.24
81961;BME280;71462;50.650;6.888;2024-01-30T00:30:42;100908.00;;;8.37;58.53
81961;BME280;71462;50.650;6.888;2024-01-30T00:33:09;100901.16;;;8.30;58.67
81961;BME280;71462;50.650;6.888;2024-01-30T00:35:37;100902.28;;;8.17;59.66
81961;BME280;71462;50.650;6.888;2024-01-30T00:38:04;100904.72;;;8.35;58.74
81961;BME280;71462;50.650;6.888;2024-01-30T00:40:35;100902.47;;;8.27;59.25
81961;BME280;71462;50.650;6.888;2024-01-30T00:43:03;100894.88;;;8.19;59.79
81961;BME280;71462;50.650;6.888;2024-01-30T00:45:31;100890.34;;;8.20;59.70
81961;BME280;71462;50.650;6.888;2024-01-30T00:47:58;100900.25;;;8.07;60.11
81961;BME280;71462;50.650;6.888;2024-01-30T00:50:26;100903.47;;;8.09;60.19
81961;BME280;71462;50.650;6.888;2024-01-30T00:52:54;100894.47;;;8.27;59.93
81961;BME280;71462;50.650;6.888;2024-01-30T00:55:21;100887.47;;;8.38;59.81
81961;BME280;71462;50.650;6.888;2024-01-30T00:57:50;100901.28;;;8.52;59.00
81961;BME280;71462;50.650;6.888;2024-01-30T01:00:18;100892.91;;;8.43;59.46
81961;BME280;71462;50.650;6.888;2024-01-30T01:02:47;100898.97;;;8.72;58.47
81961;BME280;71462;50.650;6.888;2024-01-30T01:05:15;100894.84;;;8.81;58.35
81961;BME280;71462;50.650;6.888;2024-01-30T01:07:42;100897.66;;;8.58;59.26
81961;BME280;71462;50.650;6.888;2024-01-30T01:10:10;100891.84;;;8.61;59.14
81961;BME280;71462;50.650;6.888;2024-01-30T01:12:40;100903.97;;;8.85;57.99
81961;BME280;71462;50.650;6.888;2024-01-30T01:15:09;100903.72;;;8.87;57.80
81961;BME280;71462;50.650;6.888;2024-01-30T01:17:38;100897.50;;;8.64;59.18
81961;BME280;71462;50.650;6.888;2024-01-30T01:20:07;100898.81;;;8.78;58.74
81961;BME280;71462;50.650;6.888;2024-01-30T01:22:37;100899.13;;;8.82;58.33
81961;BME280;71462;50.650;6.888;2024-01-30T01:25:06;100903.91;;;8.80;58.70
81961;BME280;71462;50.650;6.888;2024-01-30T01:27:35;100892.50;;;9.01;57.73
81961;BME280;71462;50.650;6.888;2024-01-30T01:30:10;100887.97;;;8.85;58.38
81961;BME280;71462;50.650;6.888;2024-01-30T01:32:38;100895.00;;;8.91;58.11
81961;BME280;71462;50.650;6.888;2024-01-30T01:35:11;100900.50;;;8.85;58.52
81961;BME280;71462;50.650;6.888;2024-01-30T01:37:39;100885.31;;;8.85;58.25
81961;BME280;71462;50.650;6.888;2024-01-30T01:40:08;100889.09;;;8.89;57.98
81961;BME280;71462;50.650;6.888;2024-01-30T01:42:35;100889.09;;;8.89;57.88
81961;BME280;71462;50.650;6.888;2024-01-30T01:45:04;100882.78;;;8.62;58.87
81961;BME280;71462;50.650;6.888;2024-01-30T01:47:33;100880.06;;;8.57;59.13
81961;BME280;71462;50.650;6.888;2024-01-30T01:50:01;100881.81;;;8.68;58.67
81961;BME280;71462;50.650;6.888;2024-01-30T01:52:30;100878.13;;;8.52;59.05
81961;BME280;71462;50.650;6.888;2024-01-30T01:54:58;100879.31;;;8.61;59.17
81961;BME280;71462;50.650;6.888;2024-01-30T01:57:26;100879.34;;;8.78;58.54
81961;BME280;71462;50.650;6.888;2024-01-30T01:59:53;100879.66;;;8.65;58.80
81961;BME280;71462;50.650;6.888;2024-01-30T02:02:23;100881.50;;;8.81;58.21
81961;BME280;71462;50.650;6.888;2024-01-30T02:04:53;100880.47;;;8.82;58.27
81961;BME280;71462;50.650;6.888;2024-01-30T02:07:21;100872.22;;;8.50;59.60
81961;BME280;71462;50.650;6.888;2024-01-30T02:09:49;100877.22;;;8.63;59.07
81961;BME280;71462;50.650;6.888;2024-01-30T02:12:16;100872.94;;;8.62;58.79
81961;BME280;71462;50.650;6.888;2024-01-30T02:14:45;100865.34;;;8.54;59.23
81961;BME280;71462;50.650;6.888;2024-01-30T02:17:12;100874.81;;;8.62;58.78
81961;BME280;71462;50.650;6.888;2024-01-30T02:19:40;100865.81;;;8.68;58.54
81961;BME280;71462;50.650;6.888;2024-01-30T02:22:09;100867.06;;;8.77;58.26
81961;BME280;71462;50.650;6.888;2024-01-30T02:24:36;100865.03;;;9.01;57.24
81961;BME280;71462;50.650;6.888;2024-01-30T02:27:04;100865.84;;;8.85;57.68
81961;BME280;71462;50.650;6.888;2024-01-30T02:29:32;100859.19;;;9.04;57.03
81961;BME280;71462;50.650;6.888;2024-01-30T02:31:59;100862.56;;;9.16;56.56
81961;BME280;71462;50.650;6.888;2024-01-30T02:34:27;100863.16;;;9.18;56.20
81961;BME280;71462;50.650;6.888;2024-01-30T02:36:54;100871.38;;;9.17;55.15
81961;BME280;71462;50.650;6.888;2024-01-30T02:39:24;100867.19;;;9.21;54.87
81961;BME280;71462;50.650;6.888;2024-01-30T02:41:52;100867.25;;;9.09;55.24
81961;BME280;71462;50.650;6.888;2024-01-30T02:44:20;100859.66;;;9.18;55.06
81961;BME280;71462;50.650;6.888;2024-01-30T02:46:47;100862.16;;;9.24;54.83
81961;BME280;71462;50.650;6.888;2024-01-30T02:49:15;100864.56;;;9.26;54.85
81961;BME280;71462;50.650;6.888;2024-01-30T02:51:43;100873.13;;;9.28;54.79
81961;BME280;71462;50.650;6.888;2024-01-30T02:54:10;100864.88;;;9.29;54.70
81961;BME280;71462;50.650;6.888;2024-01-30T02:56:39;100862.72;;;9.26;54.50
81961;BME280;71462;50.650;6.888;2024-01-30T02:59:07;100860.13;;;9.15;54.92
81961;BME280;71462;50.650;6.888;2024-01-30T03:01:42;100859.34;;;8.97;55.54
81961;BME280;71462;50.650;6.888;2024-01-30T03:04:10;100854.19;;;8.91;56.13
81961;BME280;71462;50.650;6.888;2024-01-30T03:06:38;100845.28;;;9.02;55.72
81961;BME280;71462;50.650;6.888;2024-01-30T03:09:05;100850.78;;;8.95;56.05
81961;BME280;71462;50.650;6.888;2024-01-30T03:11:33;100845.50;;;9.00;55.70
81961;BME280;71462;50.650;6.888;2024-01-30T03:14:02;100852.72;;;9.00;55.68
81961;BME280;71462;50.650;6.888;2024-01-30T03:16:30;100851.47;;;8.69;56.38
81961;BME280;71462;50.650;6.888;2024-01-30T03:18:58;100846.72;;;8.71;56.58
81961;BME280;71462;50.650;6.888;2024-01-30T03:21:27;100845.56;;;8.67;56.61
81961;BME280;71462;50.650;6.888;2024-01-30T03:23:55;100841.50;;;8.31;57.87
81961;BME280;71462;50.650;6.888;2024-01-30T03:26:22;100847.91;;;8.46;57.41
81961;BME280;71462;50.650;6.888;2024-01-30T03:28:50;100850.72;;;8.57;56.45
81961;BME280;71462;50.650;6.888;2024-01-30T03:31:19;100849.03;;;8.51;56.46
81961;BME280;71462;50.650;6.888;2024-01-30T03:33:47;100855.09;;;8.46;56.70
81961;BME280;71462;50.650;6.888;2024-01-30T03:36:15;100845.50;;;8.45;56.15
81961;BME280;71462;50.650;6.888;2024-01-30T03:38:43;100847.84;;;8.41;56.58
81961;BME280;71462;50.650;6.888;2024-01-30T03:41:10;100846.19;;;8.24;56.28
81961;BME280;71462;50.650;6.888;2024-01-30T03:43:38;100840.13;;;8.28;57.05
81961;BME280;71462;50.650;6.888;2024-01-30T03:46:05;100837.63;;;8.22;56.17
81961;BME280;71462;50.650;6.888;2024-01-30T03:48:35;100846.06;;;8.02;57.61
81961;BME280;71462;50.650;6.888;2024-01-30T03:51:04;100843.13;;;8.15;57.92
81961;BME280;71462;50.650;6.888;2024-01-30T03:53:31;100844.09;;;8.26;57.19
81961;BME280;71462;50.650;6.888;2024-01-30T03:55:59;100835.84;;;8.10;56.99
81961;BME280;71462;50.650;6.888;2024-01-30T03:58:27;100836.25;;;8.19;57.19
81961;BME280;71462;50.650;6.888;2024-01-30T04:00:54;100836.84;;;8.21;57.41
81961;BME280;71462;50.650;6.888;2024-01-30T04:03:22;100836.91;;;8.26;57.44
81961;BME280;71462;50.650;6.888;2024-01-30T04:05:51;100834.16;;;8.21;56.88
81961;BME280;71462;50.650;6.888;2024-01-30T04:08:19;100833.34;;;8.21;57.42
81961;BME280;71462;50.650;6.888;2024-01-30T04:10:47;100831.81;;;8.25;57.59
81961;BME280;71462;50.650;6.888;2024-01-30T04:13:14;100834.44;;;8.36;57.59
81961;BME280;71462;50.650;6.888;2024-01-30T04:15:42;100829.75;;;8.43;57.71
81961;BME280;71462;50.650;6.888;2024-01-30T04:18:10;100815.53;;;8.21;59.49
81961;BME280;71462;50.650;6.888;2024-01-30T04:20:38;100827.41;;;8.47;58.26
81961;BME280;71462;50.650;6.888;2024-01-30T04:23:07;100823.50;;;8.04;59.96
81961;BME280;71462;50.650;6.888;2024-01-30T04:25:34;100820.28;;;8.19;58.49
81961;BME280;71462;50.650;6.888;2024-01-30T04:28:02;100822.53;;;8.27;58.77
81961;BME280;71462;50.650;6.888;2024-01-30T04:30:30;100827.81;;;8.39;58.16
81961;BME280;71462;50.650;6.888;2024-01-30T04:32:58;100829.81;;;8.32;57.08
81961;BME280;71462;50.650;6.888;2024-01-30T04:35:26;100817.69;;;8.24;57.66
81961;BME280;71462;50.650;6.888;2024-01-30T04:37:53;100821.81;;;8.32;56.91
81961;BME280;71462;50.650;6.888;2024-01-30T04:40:22;100814.06;;;8.30;58.00
81961;BME280;71462;50.650;6.888;2024-01-30T04:42:50;100817.06;;;8.34;58.55
81961;BME280;71462;50.650;6.888;2024-01-30T04:45:18;100811.97;;;8.32;58.99
81961;BME280;71462;50.650;6.888;2024-01-30T04:47:45;100817.47;;;8.26;59.17
81961;BME280;71462;50.650;6.888;2024-01-30T04:50:13;100816.16;;;8.11;57.56
81961;BME280;71462;50.650;6.888;2024-01-30T04:52:40;100820.84;;;8.04;58.08
81961;BME280;71462;50.650;6.888;2024-01-30T04:55:10;100815.16;;;8.01;58.51
81961;BME280;71462;50.650;6.888;2024-01-30T04:57:39;100816.78;;;8.02;57.97
81961;BME280;71462;50.650;6.888;2024-01-30T05:00:08;100819.34;;;7.97;57.21
81961;BME280;71462;50.650;6.888;2024-01-30T05:02:36;100816.03;;;7.90;57.32
81961;BME280;71462;50.650;6.888;2024-01-30T05:08:24;100821.44;;;7.95;57.18
81961;BME280;71462;50.650;6.888;2024-01-30T05:10:51;100826.06;;;7.99;57.21
81961;BME280;71462;50.650;6.888;2024-01-30T05:13:20;100823.16;;;8.01;57.12
81961;BME280;71462;50.650;6.888;2024-01-30T05:19:02;100824.25;;;7.88;57.58
81961;BME280;71462;50.650;6.888;2024-01-30T05:21:30;100819.09;;;7.70;57.92
81961;BME280;71462;50.650;6.888;2024-01-30T05:23:58;100816.91;;;7.67;59.21
81961;BME280;71462;50.650;6.888;2024-01-30T05:26:25;100830.13;;;7.62;59.19
81961;BME280;71462;50.650;6.888;2024-01-30T05:28:55;100825.13;;;7.65;58.90
81961;BME280;71462;50.650;6.888;2024-01-30T05:31:22;100822.13;;;7.62;58.52
81961;BME280;71462;50.650;6.888;2024-01-30T05:33:52;100820.28;;;7.62;58.79
81961;BME280;71462;50.650;6.888;2024-01-30T05:36:20;100827.69;;;7.60;58.72
81961;BME280;71462;50.650;6.888;2024-01-30T05:38:48;100812.50;;;7.72;59.51
81961;BME280;71462;50.650;6.888;2024-01-30T05:41:16;100814.25;;;7.78;58.52
81961;BME280;71462;50.650;6.888;2024-01-30T05:43:44;100812.97;;;7.81;58.37
81961;BME280;71462;50.650;6.888;2024-01-30T05:46:12;100815.38;;;7.82;58.21
81961;BME280;71462;50.650;6.888;2024-01-30T05:48:40;100802.19;;;7.76;57.03
81961;BME280;71462;50.650;6.888;2024-01-30T05:51:11;100807.22;;;7.61;58.29
81961;BME280;71462;50.650;6.888;2024-01-30T05:53:39;100808.69;;;7.68;58.08
81961;BME280;71462;50.650;6.888;2024-01-30T05:56:07;100803.31;;;7.51;58.39
81961;BME280;71462;50.650;6.888;2024-01-30T05:58:35;100801.84;;;7.44;58.69
81961;BME280;71462;50.650;6.888;2024-01-30T06:01:06;100793.97;;;7.49;58.69
81961;BME280;71462;50.650;6.888;2024-01-30T06:03:35;100797.16;;;7.22;61.59
81961;BME280;71462;50.650;6.888;2024-01-30T06:06:04;100804.38;;;7.50;59.50
81961;BME280;71462;50.650;6.888;2024-01-30T06:08:31;100802.19;;;7.36;59.34
81961;BME280;71462;50.650;6.888;2024-01-30T06:10:59;100805.31;;;7.44;59.06
81961;BME280;71462;50.650;6.888;2024-01-30T06:13:27;100814.34;;;7.43;58.43
81961;BME280;71462;50.650;6.888;2024-01-30T06:15:58;100802.75;;;7.38;58.99
81961;BME280;71462;50.650;6.888;2024-01-30T06:18:25;100817.16;;;7.25;58.58
81961;BME280;71462;50.650;6.888;2024-01-30T06:20:57;100810.22;;;7.24;59.59
81961;BME280;71462;50.650;6.888;2024-01-30T06:23:24;100811.50;;;7.21;59.35
81961;BME280;71462;50.650;6.888;2024-01-30T06:25:52;100805.94;;;7.23;59.68
81961;BME280;71462;50.650;6.888;2024-01-30T06:28:19;100819.00;;;7.25;59.55
81961;BME280;71462;50.650;6.888;2024-01-30T06:30:47;100817.94;;;7.26;59.65
81961;BME280;71462;50.650;6.888;2024-01-30T06:33:15;100820.63;;;7.26;59.20
81961;BME280;71462;50.650;6.888;2024-01-30T06:35:43;100817.38;;;7.23;59.83
81961;BME280;71462;50.650;6.888;2024-01-30T06:38:13;100817.66;;;7.10;59.69
81961;BME280;71462;50.650;6.888;2024-01-30T06:40:42;100802.03;;;7.14;59.80
81961;BME280;71462;50.650;6.888;2024-01-30T06:43:09;100806.50;;;7.25;59.14
81961;BME280;71462;50.650;6.888;2024-01-30T06:45:37;100801.28;;;7.30;58.31
81961;BME280;71462;50.650;6.888;2024-01-30T06:48:06;100809.31;;;7.18;59.33
81961;BME280;71462;50.650;6.888;2024-01-30T06:50:34;100812.06;;;7.23;59.21
81961;BME280;71462;50.650;6.888;2024-01-30T06:53:01;100809.84;;;7.32;59.02
81961;BME280;71462;50.650;6.888;2024-01-30T06:55:31;100811.19;;;7.06;63.73
81961;BME280;71462;50.650;6.888;2024-01-30T06:57:58;100805.72;;;7.01;60.85
81961;BME280;71462;50.650;6.888;2024-01-30T07:00:26;100801.94;;;7.09;61.27
81961;BME280;71462;50.650;6.888;2024-01-30T07:02:54;100805.03;;;7.17;61.24
81961;BME280;71462;50.650;6.888;2024-01-30T07:05:22;100802.56;;;7.28;60.79
81961;BME280;71462;50.650;6.888;2024-01-30T07:07:49;100800.94;;;7.38;60.07
81961;BME280;71462;50.650;6.888;2024-01-30T07:10:17;100800.81;;;7.45;59.84
81961;BME280;71462;50.650;6.888;2024-01-30T07:12:46;100801.47;;;7.52;60.40
81961;BME280;71462;50.650;6.888;2024-01-30T07:15:16;100793.16;;;7.48;61.44
81961;BME280;71462;50.650;6.888;2024-01-30T07:17:46;100794.94;;;7.60;59.61
81961;BME280;71462;50.650;6.888;2024-01-30T07:20:14;100792.81;;;7.45;60.92
81961;BME280;71462;50.650;6.888;2024-01-30T07:22:44;100796.06;;;7.35;60.93
81961;BME280;71462;50.650;6.888;2024-01-30T07:25:11;100800.56;;;7.35;61.16
81961;BME280;71462;50.650;6.888;2024-01-30T07:27:39;100796.19;;;7.40;60.86
81961;BME280;71462;50.650;6.888;2024-01-30T07:30:09;100796.72;;;7.54;60.54
81961;BME280;71462;50.650;6.888;2024-01-30T07:32:36;100805.34;;;7.73;61.51
81961;BME280;71462;50.650;6.888;2024-01-30T07:35:04;100816.00;;;7.61;60.71
81961;BME280;71462;50.650;6.888;2024-01-30T07:37:35;100814.38;;;7.60;61.32
81961;BME280;71462;50.650;6.888;2024-01-30T07:40:03;100819.81;;;7.65;60.91
81961;BME280;71462;50.650;6.888;2024-01-30T07:42:31;100816.53;;;7.75;61.52
81961;BME280;71462;50.650;6.888;2024-01-30T07:44:58;100814.66;;;7.87;61.34
81961;BME280;71462;50.650;6.888;2024-01-30T07:47:28;100822.50;;;7.94;62.39
81961;BME280;71462;50.650;6.888;2024-01-30T07:49:56;100822.22;;;8.07;62.21
81961;BME280;71462;50.650;6.888;2024-01-30T07:52:23;100823.28;;;8.23;62.43
81961;BME280;71462;50.650;6.888;2024-01-30T07:54:51;100833.72;;;8.41;61.57
81961;BME280;71462;50.650;6.888;2024-01-30T07:57:19;100834.19;;;8.38;62.25
81961;BME280;71462;50.650;6.888;2024-01-30T07:59:46;100836.94;;;8.43;62.12
81961;BME280;71462;50.650;6.888;2024-01-30T08:02:15;100837.25;;;8.63;61.22
81961;BME280;71462;50.650;6.888;2024-01-30T08:04:44;100839.28;;;8.56;61.55
81961;BME280;71462;50.650;6.888;2024-01-30T08:07:15;100849.38;;;8.37;62.17
81961;BME280;71462;50.650;6.888;2024-01-30T08:09:43;100849.09;;;8.05;63.45
81961;BME280;71462;50.650;6.888;2024-01-30T08:12:11;100846.50;;;7.70;64.86
81961;BME280;71462;50.650;6.888;2024-01-30T08:14:40;100843.13;;;7.35;66.46
81961;BME280;71462;50.650;6.888;2024-01-30T08:17:08;100846.16;;;7.38;66.11
81961;BME280;71462;50.650;6.888;2024-01-30T08:19:35;100840.75;;;7.21;67.73
81961;BME280;71462;50.650;6.888;2024-01-30T08:22:04;100841.66;;;7.67;66.28
81961;BME280;71462;50.650;6.888;2024-01-30T08:24:32;100839.09;;;7.84;65.11
81961;BME280;71462;50.650;6.888;2024-01-30T08:26:59;100835.56;;;7.95;64.51
81961;BME280;71462;50.650;6.888;2024-01-30T08:29:28;100836.84;;;8.21;63.47
81961;BME280;71462;50.650;6.888;2024-01-30T08:31:56;100834.03;;;8.44;62.48
81961;BME280;71462;50.650;6.888;2024-01-30T08:34:25;100821.41;;;8.57;62.10
81961;BME280;71462;50.650;6.888;2024-01-30T08:36:53;100830.97;;;8.69;61.74
81961;BME280;71462;50.650;6.888;2024-01-30T08:39:22;100824.16;;;8.78;61.23
81961;BME280;71462;50.650;6.888;2024-01-30T08:41:50;100828.31;;;8.91;61.67
81961;BME280;71462;50.650;6.888;2024-01-30T08:44:18;100832.91;;;9.13;60.49
81961;BME280;71462;50.650;6.888;2024-01-30T08:46:45;100836.53;;;9.23;60.14
81961;BME280;71462;50.650;6.888;2024-01-30T08:49:13;100853.41;;;9.29;59.71
81961;BME280;71462;50.650;6.888;2024-01-30T08:51:41;100853.00;;;9.37;59.80
81961;BME280;71462;50.650;6.888;2024-01-30T08:54:09;100854.16;;;9.46;59.68
81961;BME280;71462;50.650;6.888;2024-01-30T08:56:38;100845.09;;;9.47;59.10
81961;BME280;71462;50.650;6.888;2024-01-30T08:59:05;100854.34;;;9.39;59.69
81961;BME280;71462;50.650;6.888;2024-01-30T09:01:35;100860.88;;;9.49;59.73
81961;BME280;71462;50.650;6.888;2024-01-30T09:04:04;100876.94;;;9.54;59.75
81961;BME280;71462;50.650;6.888;2024-01-30T09:06:32;100879.25;;;9.67;59.33
81961;BME280;71462;50.650;6.888;2024-01-30T09:08:59;100877.75;;;9.76;58.97
81961;BME280;71462;50.650;6.888;2024-01-30T09:11:27;100874.72;;;9.94;59.12
81961;BME280;71462;50.650;6.888;2024-01-30T09:13:56;100871.13;;;10.06;58.56
81961;BME280;71462;50.650;6.888;2024-01-30T09:16:23;100873.94;;;9.94;59.39
81961;BME280;71462;50.650;6.888;2024-01-30T09:18:51;100876.97;;;8.98;64.12
81961;BME280;71462;50.650;6.888;2024-01-30T09:21:19;100869.81;;;9.37;63.05
81961;BME280;71462;50.650;6.888;2024-01-30T09:23:46;100874.50;;;9.30;63.79
81961;BME280;71462;50.650;6.888;2024-01-30T09:26:14;100881.91;;;9.06;64.41
81961;BME280;71462;50.650;6.888;2024-01-30T09:28:42;100877.88;;;9.43;64.41
81961;BME280;71462;50.650;6.888;2024-01-30T09:31:11;100882.59;;;9.79;63.24
81961;BME280;71462;50.650;6.888;2024-01-30T09:33:38;100881.88;;;10.38;61.67
81961;BME280;71462;50.650;6.888;2024-01-30T09:36:07;100893.47;;;10.80;59.86
81961;BME280;71462;50.650;6.888;2024-01-30T09:38:35;100894.34;;;10.91;59.16
81961;BME280;71462;50.650;6.888;2024-01-30T09:41:09;100894.53;;;10.79;59.45
81961;BME280;71462;50.650;6.888;2024-01-30T09:43:37;100897.34;;;10.36;61.92
81961;BME280;71462;50.650;6.888;2024-01-30T09:46:08;100908.53;;;9.84;63.45
81961;BME280;71462;50.650;6.888;2024-01-30T09:48:41;100917.22;;;9.52;62.98
81961;BME280;71462;50.650;6.888;2024-01-30T09:51:10;100915.84;;;9.93;62.41
81961;BME280;71462;50.650;6.888;2024-01-30T09:53:38;100907.97;;;10.30;61.24
81961;BME280;71462;50.650;6.888;2024-01-30T09:56:07;100913.28;;;10.84;59.55
81961;BME280;71462;50.650;6.888;2024-01-30T09:58:35;100899.19;;;11.41;57.01
81961;BME280;71462;50.650;6.888;2024-01-30T10:01:03;100905.38;;;11.42;57.05
81961;BME280;71462;50.650;6.888;2024-01-30T10:03:30;100907.28;;;11.56;56.48
81961;BME280;71462;50.650;6.888;2024-01-30T10:06:00;100899.63;;;10.49;59.64
81961;BME280;71462;50.650;6.888;2024-01-30T10:08:28;100910.16;;;9.41;63.46
81961;BME280;71462;50.650;6.888;2024-01-30T10:10:56;100921.38;;;9.65;63.29
81961;BME280;71462;50.650;6.888;2024-01-30T10:13:25;100921.03;;;9.78;62.89
81961;BME280;71462;50.650;6.888;2024-01-30T10:15:53;100922.94;;;10.05;62.03
81961;BME280;71462;50.650;6.888;2024-01-30T10:18:22;100912.03;;;10.33;60.66
81961;BME280;71462;50.650;6.888;2024-01-30T10:20:51;100906.84;;;10.48;60.35
81961;BME280;71462;50.650;6.888;2024-01-30T10:23:20;100912.28;;;10.31;60.83
81961;BME280;71462;50.650;6.888;2024-01-30T10:25:47;100916.56;;;9.84;61.96
81961;BME280;71462;50.650;6.888;2024-01-30T10:28:15;100927.25;;;9.84;62.08
81961;BME280;71462;50.650;6.888;2024-01-30T10:30:43;100923.38;;;10.45;60.16
81961;BME280;71462;50.650;6.888;2024-01-30T10:33:10;100933.34;;;10.55;59.00
81961;BME280;71462;50.650;6.888;2024-01-30T10:35:38;100929.72;;;10.39;58.69
81961;BME280;71462;50.650;6.888;2024-01-30T10:38:08;100920.03;;;10.33;59.56
81961;BME280;71462;50.650;6.888;2024-01-30T10:40:39;100917.19;;;11.04;57.13
81961;BME280;71462;50.650;6.888;2024-01-30T10:43:08;100908.25;;;11.30;56.32
81961;BME280;71462;50.650;6.888;2024-01-30T10:45:40;100909.00;;;11.68;55.38
81961;BME280;71462;50.650;6.888;2024-01-30T10:48:11;100907.94;;;11.69;54.81
81961;BME280;71462;50.650;6.888;2024-01-30T10:50:40;100923.25;;;11.88;53.89
81961;BME280;71462;50.650;6.888;2024-01-30T10:53:19;100922.00;;;12.06;53.69
81961;BME280;71462;50.650;6.888;2024-01-30T10:55:48;100914.75;;;11.44;55.38
81961;BME280;71462;50.650;6.888;2024-01-30T10:58:18;100911.53;;;12.05;54.24
81961;BME280;71462;50.650;6.888;2024-01-30T11:00:46;100903.81;;;12.49;52.81
81961;BME280;71462;50.650;6.888;2024-01-30T11:03:13;100898.75;;;12.63;51.98
81961;BME280;71462;50.650;6.888;2024-01-30T11:05:41;100908.69;;;12.93;51.24
81961;BME280;71462;50.650;6.888;2024-01-30T11:08:12;100910.56;;;13.02;50.93
81961;BME280;71462;50.650;6.888;2024-01-30T11:10:48;100905.16;;;13.07;50.95
81961;BME280;71462;50.650;6.888;2024-01-30T11:13:16;100902.25;;;12.84;51.50
81961;BME280;71462;50.650;6.888;2024-01-30T11:15:47;100898.75;;;12.98;51.22
81961;BME280;71462;50.650;6.888;2024-01-30T11:18:22;100903.84;;;13.05;51.13
81961;BME280;71462;50.650;6.888;2024-01-30T11:20:50;100906.22;;;13.11;50.76
81961;BME280;71462;50.650;6.888;2024-01-30T11:23:18;100901.63;;;13.22;50.54
81961;BME280;71462;50.650;6.888;2024-01-30T11:25:45;100897.41;;;12.80;50.77
81961;BME280;71462;50.650;6.888;2024-01-30T11:28:15;100900.06;;;13.06;50.96
81961;BME280;71462;50.650;6.888;2024-01-30T11:30:43;100896.31;;;13.07;50.72
81961;BME280;71462;50.650;6.888;2024-01-30T11:33:12;100902.19;;;13.19;50.69
81961;BME280;71462;50.650;6.888;2024-01-30T11:35:41;100914.81;;;13.19;50.22
81961;BME280;71462;50.650;6.888;2024-01-30T11:38:11;100899.56;;;12.99;50.51
81961;BME280;71462;50.650;6.888;2024-01-30T11:40:40;100902.22;;;13.09;50.59
81961;BME280;71462;50.650;6.888;2024-01-30T11:43:08;100900.03;;;13.21;50.12
81961;BME280;71462;50.650;6.888;2024-01-30T11:45:38;100898.69;;;13.29;50.15
81961;BME280;71462;50.650;6.888;2024-01-30T11:48:07;100894.38;;;13.23;49.93
81961;BME280;71462;50.650;6.888;2024-01-30T11:50:38;100902.66;;;13.41;49.72
81961;BME280;71462;50.650;6.888;2024-01-30T11:53:07;100897.81;;;13.49;49.40
81961;BME280;71462;50.650;6.888;2024-01-30T11:55:34;100885.16;;;13.49;49.50
81961;BME280;71462;50.650;6.888;2024-01-30T11:58:04;100882.81;;;13.37;50.13
81961;BME280;71462;50.650;6.888;2024-01-30T12:00:32;100885.78;;;13.21;50.36
81961;BME280;71462;50.650;6.888;2024-01-30T12:03:03;100884.13;;;13.45;49.88
81961;BME280;71462;50.650;6.888;2024-01-30T12:05:32;100884.41;;;13.43;50.11
81961;BME280;71462;50.650;6.888;2024-01-30T12:08:00;100884.06;;;13.55;49.95
81961;BME280;71462;50.650;6.888;2024-01-30T12:10:29;100881.38;;;13.55;49.28
81961;BME280;71462;50.650;6.888;2024-01-30T12:12:57;100879.50;;;13.61;49.74
81961;BME280;71462;50.650;6.888;2024-01-30T12:15:26;100881.63;;;13.74;49.49
81961;BME280;71462;50.650;6.888;2024-01-30T12:18:05;100880.22;;;12.97;49.61
81961;BME280;71462;50.650;6.888;2024-01-30T12:20:34;100862.81;;;12.69;50.84
81961;BME280;71462;50.650;6.888;2024-01-30T12:23:02;100868.41;;;12.88;50.44
81961;BME280;71462;50.650;6.888;2024-01-30T12:25:30;100867.25;;;13.29;49.79
81961;BME280;71462;50.650;6.888;2024-01-30T12:27:58;100859.69;;;13.41;49.57
81961;BME280;71462;50.650;6.888;2024-01-30T12:30:27;100864.72;;;13.63;49.35
81961;BME280;71462;50.650;6.888;2024-01-30T12:32:55;100872.94;;;13.92;48.43
81961;BME280;71462;50.650;6.888;2024-01-30T12:35:25;100884.66;;;14.07;48.40
81961;BME280;71462;50.650;6.888;2024-01-30T12:37:58;100880.03;;;14.12;48.23
81961;BME280;71462;50.650;6.888;2024-01-30T12:40:26;100882.66;;;14.27;47.84
81961;BME280;71462;50.650;6.888;2024-01-30T12:42:53;100881.81;;;14.32;47.45
81961;BME280;71462;50.650;6.888;2024-01-30T12:45:21;100892.91;;;14.20;48.10
81961;BME280;71462;50.650;6.888;2024-01-30T12:47:49;100893.44;;;14.22;48.27
81961;BME280;71462;50.650;6.888;2024-01-30T12:50:17;100903.38;;;14.27;48.19
81961;BME280;71462;50.650;6.888;2024-01-30T12:52:47;100905.72;;;14.33;47.42
81961;BME280;71462;50.650;6.888;2024-01-30T12:55:16;100907.31;;;14.40;47.50
81961;BME280;71462;50.650;6.888;2024-01-30T12:57:44;100897.91;;;14.37;48.01
81961;BME280;71462;50.650;6.888;2024-01-30T13:00:11;100901.06;;;14.44;47.89
81961;BME280;71462;50.650;6.888;2024-01-30T13:02:39;100898.38;;;14.44;47.76
81961;BME280;71462;50.650;6.888;2024-01-30T13:05:09;100896.47;;;14.11;49.03
81961;BME280;71462;50.650;6.888;2024-01-30T13:07:37;100900.38;;;13.89;47.89
81961;BME280;71462;50.650;6.888;2024-01-30T13:10:06;100903.78;;;14.00;48.34